• Join FlightAware (Why Join?)
  • Login
  • US Flag 
07:42PM EDT


 

Airport Tracker/Info


-or-


 

Live Flight TrackerFlight Track Log ✈ AAL1459 ✈ 11-May-2013 ✈ KORD - KRNO

Flight Track Log - Related Links

Times and Time Zones

All times are in EDT time to prevent confusion due to time zone crossing. See the AAL1459 flight status page for this flight to view local times or setup timezone preferences in your user account.

Time Position Orientation Groundspeed Altitude Reporting Facility
EDT Latitude Longitude Course Direction KTS MPH feet Rate Location/Type
06:29PM 42.0000 -87.9833 270° West 179 206 3,200  Level Chicago TRACON
06:30PM 41.9833 -88.0667 255° West 249 287 5,900 2,760 Climbing Chicago TRACON
06:31PM 41.9667 -88.3517 270° West  Level FlightAware Approximate
06:31PM 41.9767 -88.1678 265° West 249 287 9,200  Level Chicago Center
06:32PM 41.9667 -88.5023 270° West  Level FlightAware Approximate
06:32PM 41.9833 -88.2686 275° West 283 326 11,600  Level Chicago Center
06:33PM 41.9668 -88.6528 270° West  Level FlightAware Approximate
06:33PM 42.0003 -88.3800 282° West 306 352 14,100  Level Chicago Center
06:34PM 41.9667 -88.8034 270° West  Level FlightAware Approximate
06:34PM 42.0186 -88.4906 283° West 308 354 17,500  Level Chicago Center
06:35PM 42.0400 -88.6025 284° West 310 357 19,300 2,040 Climbing Chicago Center
06:36PM 42.0631 -88.7481 282° West 334 384 21,700 2,040 Climbing Chicago Center
06:37PM 42.0744 -88.8656 277° West 342 394 23,500 1,740 Climbing Chicago Center
06:38PM 42.0767 -88.9958 271° West 346 398 25,300 2,100 Climbing Chicago Center
06:40PM 42.0731 -89.1272 268° West 349 402 27,900 1,620 Climbing Chicago Center
06:41PM 42.0794 -89.2742 273° West 344 396 28,700 780 Climbing Chicago Center
06:42PM 42.0856 -89.4133 273° West 367 422 29,500 780 Climbing Chicago Center
06:43PM 42.0919 -89.5561 273° West 381 438 30,300 780 Climbing Chicago Center
06:44PM 42.0994 -89.7050 274° West 393 452 31,100 840 Climbing Chicago Center
06:45PM 42.1075 -89.8536 274° West 396 456 32,100 1,260 Climbing Chicago Center
06:46PM 42.1147 -89.9972 274° West 390 449 33,700 1,260 Climbing Chicago Center
06:47PM 42.1197 -90.1392 273° West 383 441 34,700 780 Climbing Chicago Center
06:48PM 42.1269 -90.2831 274° West 388 447 35,300 540 Climbing Chicago Center
06:49PM 42.1406 -90.4278 277° West 393 452 35,900 840 Climbing Chicago Center
06:50PM 42.1544 -90.6036 276° West 397 457 37,100 780 Climbing Chicago Center
06:51PM 42.1647 -90.7478 276° West 392 451 37,600 360 Climbing Chicago Center
06:52PM 42.1756 -90.8944 276° West 396 456 37,900 180 Climbing Chicago Center
06:53PM 42.1847 -91.0428 275° West 398 458 38,000 60 Climbing Chicago Center
06:54PM 42.1953 -91.1897 276° West 397 457 38,100  Climbing Chicago Center
06:55PM 42.2061 -91.3350 276° West 393 452 38,000  Descending Chicago Center
06:56PM 42.2153 -91.4831 275° West 396 456 38,100  Climbing Chicago Center
06:57PM 42.2256 -91.6322 275° West 400 460 38,000 -60 Descending Chicago Center
06:58PM 42.2353 -91.7797 275° West 396 456 38,000  Level Chicago Center
06:59PM 42.2464 -91.9589 275° West 400 460 38,100  Climbing Chicago Center
07:00PM 42.2558 -92.1081 275° West 400 460 38,100  Level Chicago Center
07:00PM 42.2597 -92.1689 275° West 400 460 38,100  Level Minneapolis Center
07:01PM 42.2686 -92.3175 275° West 400 460 38,100 -60 Level Minneapolis Center
07:02PM 42.2772 -92.4692 274° West 403 464 38,000  Descending Minneapolis Center
07:04PM 42.2858 -92.6197 274° West 404 465 38,100  Climbing Minneapolis Center
07:05PM 42.2964 -92.7997 275° West 404 465 38,100  Level Minneapolis Center
07:06PM 42.3033 -92.9492 274° West 404 465 38,100 -60 Level Minneapolis Center
07:07PM 42.3125 -93.1003 275° West 407 468 38,000  Descending Minneapolis Center
07:08PM 42.3197 -93.2217 275° West 408 470 38,100  Climbing Minneapolis Center
07:09PM 42.3297 -93.4036 274° West 408 470 38,100  Level Minneapolis Center
07:10PM 42.3358 -93.5519 273° West 404 465 38,100  Level Minneapolis Center
07:11PM 42.3419 -93.7017 273° West 404 465 38,100  Level Minneapolis Center
07:12PM 42.3514 -93.8808 274° West 403 464 38,100  Level Minneapolis Center
07:13PM 42.3569 -94.0292 273° West 400 460 38,100  Level Minneapolis Center
07:14PM 42.3636 -94.1786 274° West 400 460 38,100  Level Minneapolis Center
07:15PM 42.3717 -94.3436 274° West 404 465 38,100  Level Minneapolis Center
07:16PM 42.3781 -94.4958 273° West 406 467 38,100  Level Minneapolis Center
07:17PM 42.3836 -94.6458 273° West 403 464 38,100  Level Minneapolis Center
07:18PM 42.3897 -94.7964 273° West 403 464 38,100  Level Minneapolis Center
07:19PM 42.3950 -94.9469 273° West 403 464 38,100  Level Minneapolis Center
07:20PM 42.4003 -95.0969 273° West 401 461 38,100  Level Minneapolis Center
07:21PM 42.4056 -95.2475 273° West 402 463 38,100  Level Minneapolis Center
07:22PM 42.4111 -95.3992 273° West 404 465 38,100  Level Minneapolis Center
07:23PM 42.4158 -95.5797 272° West 402 463 38,100  Level Minneapolis Center
07:24PM 42.4214 -95.7308 273° West 402 463 38,100  Level Minneapolis Center
07:25PM 42.4250 -95.8814 272° West 403 464 38,100  Level Minneapolis Center
07:26PM 42.4297 -96.0331 272° West 405 466 38,100  Level Minneapolis Center
07:27PM 42.4333 -96.1858 272° West 408 470 38,100 -60 Level Minneapolis Center
07:28PM 42.4375 -96.3386 272° West 408 470 38,000  Descending Minneapolis Center
07:29PM 42.4408 -96.4911 272° West 408 470 38,100  Climbing Minneapolis Center
07:30PM 42.4447 -96.6461 272° West 410 472 38,100  Level Minneapolis Center
07:31PM 42.4483 -96.8303 272° West 411 473 38,100  Level Minneapolis Center
07:32PM 42.4508 -96.9817 271° West 407 468 38,100  Level Minneapolis Center
07:33PM 42.4539 -97.1344 272° West 405 466 38,100  Level Minneapolis Center
07:34PM 42.4567 -97.2856 271° West 404 465 38,100  Level Minneapolis Center
07:35PM 42.4592 -97.4372 271° West 406 467 38,100  Level Minneapolis Center
07:36PM 42.4606 -97.5883 271° West 404 465 38,100  Level Minneapolis Center
07:37PM 42.4633 -97.7392 271° West 402 463 38,100  Level Minneapolis Center
07:38PM 42.4644 -97.8883 271° West 398 458 38,100 -60 Level Minneapolis Center
07:39PM 42.4656 -98.0356 271° West 394 453 38,000  Descending Minneapolis Center
07:40PM 42.4678 -98.1842 271° West 394 453 38,100  Climbing Minneapolis Center
07:41PM 42.4678 -98.3303 270° West 393 452 38,000  Descending Minneapolis Center
07:42PM 42.4686 -98.5092 270° West 395 455 38,100  Climbing Minneapolis Center
07:43PM 42.4700 -98.6606 271° West 399 459 38,100 -60 Level Minneapolis Center
07:44PM 42.4578 -98.8133 264° West 409 471 38,000  Descending Minneapolis Center
07:45PM 42.4431 -98.9672 263° West 413 475 38,100  Climbing Minneapolis Center
07:46PM 42.4272 -99.1206 262° West 413 475 38,100  Level Minneapolis Center
07:47PM 42.4117 -99.2744 262° West 414 476 38,100  Level Minneapolis Center
07:48PM 42.3956 -99.4286 262° West 414 476 38,100  Level Minneapolis Center
07:49PM 42.3853 -99.5236 262° West 417 480 38,100  Level Denver Center
07:50PM 42.3672 -99.6917 262° West 417 480 38,100  Level Denver Center
07:51PM 42.3508 -99.8367 261° West 412 474 38,100  Level Denver Center
07:52PM 42.3353 -99.9847 262° West 415 478 38,100  Level Denver Center
07:53PM 42.3169 -100.1550 262° West 413 475 38,100  Level Denver Center
07:54PM 42.3003 -100.2992 261° West 410 472 38,100  Level Denver Center
07:55PM 42.2803 -100.4686 261° West 410 472 38,100  Level Denver Center
07:56PM 42.2644 -100.6161 262° West 415 478 38,100  Level Denver Center
07:57PM 42.2469 -100.7628 261° West 415 478 38,100  Level Denver Center
07:58PM 42.2264 -100.9328 261° West 413 475 38,100  Level Denver Center
07:59PM 42.2097 -101.0792 261° West 413 475 38,100  Level Denver Center
08:00PM 42.1894 -101.2503 261° West 415 478 38,100  Level Denver Center
08:01PM 42.1711 -101.3972 260° West 417 480 38,100  Level Denver Center
08:02PM 42.1556 -101.5178 260° West 412 474 38,100  Level Denver Center
08:03PM 42.1322 -101.7108 261° West 408 470 38,100  Level Denver Center
08:04PM 42.1128 -101.8569 260° West 412 474 38,100  Level Denver Center
08:05PM 42.0919 -102.0244 261° West 407 468 38,100  Level Denver Center
08:06PM 42.0725 -102.1692 260° West 410 472 38,100 -60 Level Denver Center
08:07PM 42.0528 -102.3111 259° West 408 470 38,000  Descending Denver Center
08:08PM 42.0308 -102.4792 260° West 408 470 38,100  Climbing Denver Center
08:09PM 42.0117 -102.6236 260° West 409 471 38,100 -60 Level Denver Center
08:10PM 41.9869 -102.7950 259° West 414 476 38,000 -60 Descending Denver Center
08:11PM 41.9692 -102.9397 261° West 413 475 38,000  Level Denver Center
08:12PM 41.9489 -103.0853 259° West 413 475 38,100  Climbing Denver Center
08:14PM 41.9253 -103.2589 260° West 419 482 38,000 -60 Descending Denver Center
08:15PM 41.9042 -103.4086 259° West 424 488 38,000  Level Denver Center
08:16PM 41.8889 -103.5847 263° West 427 491 38,100  Climbing Denver Center
08:17PM 41.8853 -103.7319 268° West 416 479 38,100  Level Denver Center
08:18PM 41.8778 -103.8825 266° West 420 483 38,100  Level Denver Center
08:19PM 41.8731 -104.0547 268° West 414 476 38,100 -60 Level Denver Center
08:20PM 41.8697 -104.2014 268° West 411 473 38,000 -60 Descending Denver Center
08:21PM 41.8625 -104.3511 266° West 417 480 38,000  Level Denver Center
08:22PM 41.8553 -104.5514 267° West 420 483 38,100  Climbing Denver Center
08:23PM 41.8497 -104.7022 267° West 422 486 38,100  Level Denver Center
08:24PM 41.8411 -104.8800 266° West 428 493 38,100 -60 Level Denver Center
08:25PM 41.8356 -105.0336 267° West 431 496 38,000 -60 Descending Denver Center
08:26PM 41.8275 -105.1847 266° West 425 489 38,000  Level Denver Center
08:27PM 41.8206 -105.3603 267° West 423 487 38,000  Level Denver Center
08:28PM 41.8122 -105.5083 266° West 417 480 38,100  Climbing Denver Center
08:29PM 41.8050 -105.6842 267° West 422 486 38,100  Level Denver Center
08:30PM 41.7972 -105.8347 266° West 423 487 38,100  Level Denver Center
08:31PM 41.7875 -105.9858 265° West 425 489 38,100 -60 Level Denver Center
08:32PM 41.7803 -106.1642 267° West 427 491 38,000  Descending Denver Center
08:33PM 41.7725 -106.3147 266° West 424 488 38,100  Climbing Denver Center
08:34PM 41.7622 -106.4650 265° West 424 488 38,000 -60 Descending Denver Center
08:35PM 41.7531 -106.6461 266° West 424 488 38,000  Level Denver Center
08:36PM 41.7447 -106.7967 266° West 425 489 38,100  Climbing Denver Center
08:37PM 41.7347 -106.9464 265° West 423 487 38,000  Descending Denver Center
08:38PM 41.7250 -107.1233 266° West 426 490 38,100  Climbing Denver Center
08:39PM 41.7153 -107.2756 265° West 430 495 38,100 -60 Level Denver Center
08:40PM 41.7036 -107.4531 265° West 430 495 38,000  Descending Denver Center
08:41PM 41.6931 -107.6047 265° West 429 494 38,100  Climbing Denver Center
08:42PM 41.6836 -107.7558 265° West 427 491 38,000 -60 Descending Denver Center
08:43PM 41.6719 -107.9300 265° West 424 488 38,000  Level Denver Center
08:44PM 41.6611 -108.0819 265° West 429 494 38,000  Level Denver Center
08:45PM 41.6497 -108.2317 264° West 425 489 38,100  Climbing Denver Center
08:46PM 41.6369 -108.4069 264° West 425 489 38,000  Descending Denver Center
08:47PM 41.6264 -108.5597 265° West 428 493 38,100  Climbing Salt Lake Center
08:48PM 41.6128 -108.7358 264° West 430 495 38,000 -60 Descending Salt Lake Center
08:49PM 41.6006 -108.8864 264° West 428 493 38,000  Level Salt Lake Center
08:50PM 41.5903 -109.0356 265° West 427 491 38,100  Climbing Salt Lake Center
08:51PM 41.5864 -109.2089 268° West 427 491 38,000 -60 Descending Salt Lake Center
08:52PM 41.5811 -109.3569 267° West 423 487 38,000  Level Salt Lake Center
08:53PM 41.5756 -109.5300 268° West 422 486 38,000  Level Salt Lake Center
08:54PM 41.5708 -109.6794 268° West 421 484 38,000  Level Salt Lake Center
08:55PM 41.5661 -109.8292 268° West 424 488 38,000  Level Salt Lake Center
08:57PM 41.5597 -110.0072 267° West 430 495 38,000  Level Salt Lake Center
08:58PM 41.5544 -110.1600 267° West 431 496 38,000  Level Salt Lake Center
08:59PM 41.5483 -110.3150 267° West 436 502 38,000  Level Salt Lake Center
09:00PM 41.5419 -110.4967 267° West 440 506 38,000  Level Salt Lake Center
09:01PM 41.5353 -110.6539 267° West 442 509 38,000  Level Salt Lake Center
09:02PM 41.5286 -110.8100 267° West 441 507 38,000  Level Salt Lake Center
09:03PM 41.5217 -110.9678 267° West 438 504 38,000  Level Salt Lake Center
09:04PM 41.5144 -111.1289 267° West 438 504 38,000  Level Salt Lake Center
09:05PM 41.5058 -111.3225 267° West 438 504 38,000  Level Salt Lake Center
09:06PM 41.4994 -111.4844 267° West 441 507 38,000  Level Salt Lake Center
09:07PM 41.4911 -111.6464 266° West 442 509 38,000  Level Salt Lake Center
09:08PM 41.4828 -111.8089 266° West 444 511 38,000  Level Salt Lake Center
09:09PM 41.4747 -111.9706 266° West 443 510 38,000  Level Salt Lake Center
09:10PM 41.4656 -112.1333 266° West 444 511 38,000  Level Salt Lake Center
09:11PM 41.4575 -112.2972 266° West 447 514 38,100  Climbing Salt Lake Center
09:12PM 41.4481 -112.4619 266° West 449 517 38,000 -60 Descending Salt Lake Center
09:13PM 41.4394 -112.6261 266° West 448 516 38,000  Level Salt Lake Center
09:14PM 41.4286 -112.7897 265° West 446 513 38,000  Level Salt Lake Center
09:15PM 41.4189 -112.9550 266° West 449 517 38,100  Climbing Salt Lake Center
09:16PM 41.4072 -113.1514 266° West 446 513 38,000 -60 Descending Salt Lake Center
09:17PM 41.3753 -113.3153 255° West 457 526 38,000  Level Salt Lake Center
09:18PM 41.3397 -113.4764 254° West 457 526 38,000  Level Salt Lake Center
09:19PM 41.3061 -113.6364 254° West 452 520 38,000  Level Salt Lake Center
09:20PM 41.2725 -113.7967 254° West 452 520 38,100  Climbing Salt Lake Center
09:21PM 41.2381 -113.9564 254° West 451 519 38,100 -60 Level Salt Lake Center
09:22PM 41.2031 -114.1139 254° West 448 516 38,000 -60 Descending Salt Lake Center
09:23PM 41.1686 -114.2722 254° West 448 516 38,000  Level Salt Lake Center
09:24PM 41.1350 -114.4283 254° West 444 511 38,000  Level Salt Lake Center
09:25PM 41.0994 -114.5847 253° West 444 511 38,000  Level Salt Lake Center
09:26PM 41.0642 -114.7394 253° West 442 509 38,100  Climbing Salt Lake Center
09:27PM 41.0253 -114.9142 254° West 442 509 38,000  Descending Salt Lake Center
09:28PM 40.9906 -115.0614 253° West 439 505 38,100  Climbing Salt Lake Center
09:29PM 40.9508 -115.2336 253° West 439 505 38,000 -60 Descending Salt Lake Center
09:30PM 40.9169 -115.3814 253° West 438 504 38,000  Level Salt Lake Center
09:31PM 40.8833 -115.5275 253° West 436 502 38,000  Level Salt Lake Center
09:32PM 40.8442 -115.6978 253° West 435 501 38,000  Level Salt Lake Center
09:33PM 40.8100 -115.8419 253° West 432 497 38,000  Level Salt Lake Center
09:34PM 40.7769 -115.9867 253° West 431 496 38,000  Level Salt Lake Center
09:35PM 40.7347 -116.1550 252° West 433 498 38,100  Climbing Salt Lake Center
09:36PM 40.7011 -116.3008 253° West 434 499 38,000 -60 Descending Salt Lake Center
09:37PM 40.6664 -116.4453 252° West 434 499 38,000  Level Salt Lake Center
09:38PM 40.6258 -116.6133 252° West 434 499 38,100  Climbing Salt Lake Center
09:39PM 40.5900 -116.7583 252° West 437 503 38,000 -60 Descending Salt Lake Center
09:40PM 40.5494 -116.9253 252° West 437 503 38,000  Level Salt Lake Center
09:41PM 40.5142 -117.0694 252° West 440 506 38,100  Climbing Salt Lake Center
09:42PM 40.4772 -117.2136 251° West 440 506 38,000 -180 Descending Salt Lake Center
09:43PM 40.4356 -117.3794 252° West 434 499 37,800 -600 Descending Salt Lake Center
09:44PM 40.3994 -117.5208 252° West 428 493 36,800 -1,020 Descending Salt Lake Center
09:45PM 40.3561 -117.6872 251° West 432 497 35,800 -960 Descending Salt Lake Center
09:46PM 40.3206 -117.8319 252° West 437 503 34,900 -900 Descending Salt Lake Center
09:47PM 40.3086 -117.8789 252° West 436 502 34,600 -1,020 Descending Oakland Center
09:48PM 40.2700 -118.0286 251° West 440 506 33,600 -960 Descending Oakland Center
09:49PM 40.2292 -118.1817 251° West 448 516 32,700 -1,440 Descending Oakland Center
09:50PM 40.1883 -118.3369 251° West 450 518 30,700 -2,340 Descending Oakland Center
09:51PM 40.1481 -118.4917 251° West 449 517 28,000 -2,580 Descending Oakland Center
09:52PM 40.1117 -118.6458 253° West 447 514 25,500 -2,760 Descending Oakland Center
09:53PM 40.0783 -118.8281 257° West 434 499 22,500 -2,700 Descending Oakland Center
09:54PM 40.0492 -118.9742 255° West 420 483 20,100 -2,340 Descending Oakland Center
09:55PM 40.0197 -119.1167 255° West 411 473 17,800 -1,680 Descending Oakland Center
09:56PM 39.9939 -119.2506 256° West 385 443 16,800 -1,320 Descending Oakland Center
09:57PM 39.9683 -119.3717 255° West 353 406 15,200 -1,740 Descending Oakland Center
09:58PM 39.9428 -119.4844 254° West 332 382 13,400 -1,980 Descending Oakland Center
09:59PM 39.8914 -119.5789 235° Southwest 321 369 11,200 -1,920 Descending Oakland Center
10:00PM 39.8406 -119.6717 235° Southwest 318 366 9,500 -1,080 Descending Oakland Center
10:01PM 39.7997 -119.7433 233° Southwest 295 339 9,100 -420 Descending Oakland Center